createdAt,value
2022-09-30T00:00:28.983Z,100668.09
2022-09-30T00:01:00.610Z,100668.47
2022-09-30T00:01:32.910Z,100676.53
2022-09-30T00:02:04.586Z,100675.91
2022-09-30T00:02:36.274Z,100678.53
2022-09-30T00:03:07.908Z,100674.91
2022-09-30T00:03:39.521Z,100677.53
2022-09-30T00:04:16.241Z,100678.53
2022-09-30T00:04:47.748Z,100677.56
2022-09-30T00:05:19.285Z,100675.91
2022-09-30T00:06:05.585Z,100672.59
2022-09-30T00:06:39.739Z,100678.53
2022-09-30T00:07:11.541Z,100677.53
2022-09-30T00:07:43.216Z,100679.50
2022-09-30T00:08:14.767Z,100676.56
2022-09-30T00:08:46.819Z,100667.72
2022-09-30T00:09:19.098Z,100674.63
2022-09-30T00:09:50.731Z,100673.91
2022-09-30T00:10:22.611Z,100673.19
2022-09-30T00:11:17.907Z,100671.56
2022-09-30T00:11:49.589Z,100671.50
2022-09-30T00:12:21.169Z,100667.94
2022-09-30T00:12:52.920Z,100672.75
2022-09-30T00:13:24.434Z,100672.19
2022-09-30T00:13:57.638Z,100670.94
2022-09-30T00:14:29.189Z,100665.81
2022-09-30T00:15:00.973Z,100672.22
2022-09-30T00:15:33.245Z,100670.78
2022-09-30T00:16:05.431Z,100671.59
2022-09-30T00:16:37.562Z,100666.81
2022-09-30T00:17:09.220Z,100670.31
2022-09-30T00:17:40.778Z,100668.47
2022-09-30T00:18:12.323Z,100668.47
2022-09-30T00:18:44.243Z,100671.13
2022-09-30T00:19:15.887Z,100672.44
2022-09-30T00:19:47.659Z,100670.44
2022-09-30T00:20:19.253Z,100675.38
2022-09-30T00:20:50.928Z,100670.13
2022-09-30T00:21:23.695Z,100670.59
2022-09-30T00:21:55.335Z,100670.41
2022-09-30T00:22:26.882Z,100663.81
2022-09-30T00:22:58.417Z,100667.91
2022-09-30T00:23:30.033Z,100663.47
2022-09-30T00:24:02.893Z,100667.09
2022-09-30T00:24:34.442Z,100670.38
2022-09-30T00:25:06.228Z,100671.00
2022-09-30T00:25:37.738Z,100672.53
2022-09-30T00:26:12.703Z,100661.47
2022-09-30T00:26:44.231Z,100668.38
2022-09-30T00:27:18.214Z,100665.09
2022-09-30T00:27:49.778Z,100663.69
2022-09-30T00:28:21.311Z,100667.50
2022-09-30T00:28:57.350Z,100666.16
2022-09-30T00:29:28.886Z,100658.06
2022-09-30T00:30:00.418Z,100666.09
2022-09-30T00:30:32.883Z,100662.00
2022-09-30T00:31:07.459Z,100663.81
2022-09-30T00:31:39.604Z,100662.75
2022-09-30T00:32:11.749Z,100668.38
2022-09-30T00:32:43.288Z,100659.84
2022-09-30T00:33:14.870Z,100672.69
2022-09-30T00:34:07.045Z,100670.94
2022-09-30T00:34:38.839Z,100666.44
2022-09-30T00:35:10.471Z,100668.72
2022-09-30T00:35:42.085Z,100665.09
2022-09-30T00:36:13.806Z,100668.72
2022-09-30T00:36:48.136Z,100670.72
2022-09-30T00:37:19.702Z,100668.91
2022-09-30T00:37:51.207Z,100665.44
2022-09-30T00:38:22.850Z,100663.69
2022-09-30T00:38:54.379Z,100666.00
2022-09-30T00:39:27.647Z,100665.53
2022-09-30T00:39:59.195Z,100669.97
2022-09-30T00:40:31.255Z,100669.31
2022-09-30T00:41:03.467Z,100664.34
2022-09-30T00:41:35.467Z,100668.34
2022-09-30T00:42:12.833Z,100666.56
2022-09-30T00:42:44.404Z,100670.53
2022-09-30T00:43:20.146Z,100671.22
2022-09-30T00:43:53.510Z,100668.44
2022-09-30T00:44:45.477Z,100667.75
2022-09-30T00:45:20.037Z,100674.81
2022-09-30T00:45:57.158Z,100666.63
2022-09-30T00:46:44.320Z,100665.63
2022-09-30T00:47:25.793Z,100671.88
2022-09-30T00:48:25.778Z,100668.59
2022-09-30T00:48:58.830Z,100666.44
2022-09-30T00:49:32.664Z,100673.19
2022-09-30T00:50:25.708Z,100669.91
2022-09-30T00:50:57.498Z,100664.63
2022-09-30T00:51:33.662Z,100666.78
2022-09-30T00:52:05.458Z,100672.22
2022-09-30T00:52:37.646Z,100676.97
2022-09-30T00:53:39.542Z,100670.25
2022-09-30T00:54:12.689Z,100677.50
2022-09-30T00:54:44.803Z,100681.94
2022-09-30T00:55:47.186Z,100677.84
2022-09-30T00:56:25.053Z,100677.84
2022-09-30T00:57:00.579Z,100676.22
2022-09-30T00:57:32.199Z,100678.66
2022-09-30T00:58:06.172Z,100678.31
2022-09-30T00:59:06.522Z,100677.81
2022-09-30T00:59:41.724Z,100677.50
2022-09-30T01:00:13.278Z,100675.19
2022-09-30T01:00:45.193Z,100679.97
2022-09-30T01:01:16.973Z,100678.31
2022-09-30T01:01:49.389Z,100672.88
2022-09-30T01:02:21.027Z,100683.06
2022-09-30T01:02:53.770Z,100681.41
2022-09-30T01:03:25.645Z,100670.88
2022-09-30T01:04:00.704Z,100680.25
2022-09-30T01:04:32.814Z,100672.88
2022-09-30T01:05:04.680Z,100682.41
2022-09-30T01:05:36.278Z,100671.53
2022-09-30T01:06:08.846Z,100679.09
2022-09-30T01:06:41.368Z,100676.28
2022-09-30T01:07:14.478Z,100672.47
2022-09-30T01:07:47.091Z,100674.28
2022-09-30T01:08:19.801Z,100681.66
2022-09-30T01:08:51.886Z,100684.47
2022-09-30T01:09:23.589Z,100681.31
2022-09-30T01:09:55.713Z,100678.75
2022-09-30T01:10:27.326Z,100680.84
2022-09-30T01:10:59.009Z,100682.13
2022-09-30T01:11:32.203Z,100678.03
2022-09-30T01:12:06.425Z,100678.75
2022-09-30T01:12:39.239Z,100687.03
2022-09-30T01:13:10.862Z,100676.34
2022-09-30T01:13:46.680Z,100685.03
2022-09-30T01:14:21.989Z,100684.22
2022-09-30T01:14:55.282Z,100682.88
2022-09-30T01:15:39.522Z,100679.09
2022-09-30T01:16:31.183Z,100685.34
2022-09-30T01:17:08.510Z,100679.78
2022-09-30T01:17:55.385Z,100687.50
2022-09-30T01:18:47.423Z,100685.38
2022-09-30T01:19:24.963Z,100682.09
2022-09-30T01:20:34.515Z,100686.38
2022-09-30T01:21:44.129Z,100686.03
2022-09-30T01:22:18.381Z,100676.84
2022-09-30T01:23:31.103Z,100679.63
2022-09-30T01:24:20.947Z,100676.69
2022-09-30T01:25:11.479Z,100681.75
2022-09-30T01:25:57.849Z,100680.44
2022-09-30T01:26:32.081Z,100675.19
2022-09-30T01:27:23.469Z,100683.91
2022-09-30T01:28:16.561Z,100682.75
2022-09-30T01:29:02.248Z,100682.09
2022-09-30T01:30:07.187Z,100685.22
2022-09-30T01:30:56.509Z,100677.84
2022-09-30T01:31:43.211Z,100677.66
2022-09-30T01:32:36.237Z,100689.66
2022-09-30T01:33:11.866Z,100686.88
2022-09-30T01:33:55.531Z,100687.03
2022-09-30T01:34:33.069Z,100687.38
2022-09-30T01:35:12.935Z,100688.50
2022-09-30T01:35:57.179Z,100686.03
2022-09-30T01:36:46.874Z,100687.03
2022-09-30T01:37:23.794Z,100684.75
2022-09-30T01:38:02.093Z,100689.50
2022-09-30T01:38:56.315Z,100688.31
2022-09-30T01:40:03.326Z,100690.00
2022-09-30T01:40:48.329Z,100686.69
2022-09-30T01:41:28.208Z,100693.22
2022-09-30T01:42:10.821Z,100694.22
2022-09-30T01:42:44.839Z,100688.78
2022-09-30T01:43:25.046Z,100693.88
2022-09-30T01:44:14.125Z,100690.91
2022-09-30T01:45:02.746Z,100690.25
2022-09-30T01:45:42.129Z,100683.19
2022-09-30T01:46:20.701Z,100685.28
2022-09-30T01:47:26.884Z,100690.31
2022-09-30T01:48:07.121Z,100679.78
2022-09-30T01:48:49.645Z,100689.66
2022-09-30T01:49:32.887Z,100682.09
2022-09-30T01:50:14.025Z,100684.06
2022-09-30T01:50:54.367Z,100679.47
2022-09-30T01:51:57.787Z,100684.56
2022-09-30T01:52:49.692Z,100682.75
2022-09-30T01:53:30.763Z,100686.53
2022-09-30T01:54:03.786Z,100689.00
2022-09-30T01:54:54.354Z,100694.28
2022-09-30T01:55:37.251Z,100685.69
2022-09-30T01:56:17.727Z,100691.31
2022-09-30T01:56:56.247Z,100687.38
2022-09-30T01:57:50.247Z,100691.84
2022-09-30T01:58:41.829Z,100689.06
2022-09-30T01:59:19.146Z,100687.75
2022-09-30T01:59:56.062Z,100677.72
2022-09-30T02:00:28.302Z,100687.41
2022-09-30T02:01:02.020Z,100683.78
2022-09-30T02:01:56.358Z,100683.81
2022-09-30T02:02:31.109Z,100682.16
2022-09-30T02:03:09.341Z,100686.59
2022-09-30T02:04:02.169Z,100682.16
2022-09-30T02:04:37.227Z,100684.75
2022-09-30T02:05:17.207Z,100684.63
2022-09-30T02:05:54.350Z,100683.31
2022-09-30T02:06:31.148Z,100686.75
2022-09-30T02:07:07.345Z,100690.09
2022-09-30T02:08:16.875Z,100698.44
2022-09-30T02:08:56.685Z,100695.38
2022-09-30T02:09:39.215Z,100692.22
2022-09-30T02:10:20.853Z,100697.00
2022-09-30T02:10:57.318Z,100689.78
2022-09-30T02:11:30.886Z,100692.56
2022-09-30T02:12:05.353Z,100699.00
2022-09-30T02:12:42.091Z,100685.53
2022-09-30T02:13:26.058Z,100692.44
2022-09-30T02:14:08.920Z,100695.38
2022-09-30T02:14:43.337Z,100694.69
2022-09-30T02:15:26.059Z,100688.47
2022-09-30T02:16:01.903Z,100685.50
2022-09-30T02:16:42.492Z,100683.88
2022-09-30T02:17:24.178Z,100687.16
2022-09-30T02:18:03.678Z,100688.13
2022-09-30T02:18:58.421Z,100688.13
2022-09-30T02:19:31.062Z,100685.66
2022-09-30T02:20:10.531Z,100686.84
2022-09-30T02:20:43.271Z,100688.31
2022-09-30T02:21:20.050Z,100681.91
2022-09-30T02:21:56.640Z,100681.56
2022-09-30T02:22:32.473Z,100682.41
2022-09-30T02:23:14.720Z,100680.75
2022-09-30T02:23:47.823Z,100682.22
2022-09-30T02:24:21.238Z,100690.75
2022-09-30T02:24:58.115Z,100688.47
2022-09-30T02:25:34.342Z,100693.25
2022-09-30T02:26:10.290Z,100691.28
2022-09-30T02:26:43.416Z,100698.66
2022-09-30T02:27:34.967Z,100690.59
2022-09-30T02:28:09.154Z,100691.59
2022-09-30T02:28:48.272Z,100694.75
2022-09-30T02:29:24.859Z,100684.88
2022-09-30T02:29:59.162Z,100701.31
2022-09-30T02:30:33.613Z,100691.47
2022-09-30T02:31:06.117Z,100700.00
2022-09-30T02:31:39.960Z,100698.03
2022-09-30T02:32:16.754Z,100696.88
2022-09-30T02:32:52.629Z,100698.34
2022-09-30T02:33:32.214Z,100700.63
2022-09-30T02:34:10.064Z,100697.69
2022-09-30T02:34:45.856Z,100700.00
2022-09-30T02:35:24.335Z,100695.38
2022-09-30T02:36:21.086Z,100696.22
2022-09-30T02:37:03.069Z,100697.19
2022-09-30T02:37:37.727Z,100694.56
2022-09-30T02:38:16.230Z,100697.84
2022-09-30T02:38:55.288Z,100691.28
2022-09-30T02:39:34.239Z,100693.59
2022-09-30T02:40:13.477Z,100704.59
2022-09-30T02:40:58.228Z,100692.94
2022-09-30T02:41:33.091Z,100696.56
2022-09-30T02:42:11.979Z,100699.19
2022-09-30T02:42:44.043Z,100693.75
2022-09-30T02:43:18.615Z,100695.88
2022-09-30T02:43:50.765Z,100704.28
2022-09-30T02:44:22.354Z,100703.09
2022-09-30T02:44:56.327Z,100705.41
2022-09-30T02:45:28.251Z,100709.84
2022-09-30T02:46:26.119Z,100711.47
2022-09-30T02:47:10.851Z,100718.38
2022-09-30T02:48:06.390Z,100715.09
2022-09-30T02:48:54.648Z,100717.09
2022-09-30T02:49:32.551Z,100715.09
2022-09-30T02:50:31.282Z,100717.41
2022-09-30T02:51:08.095Z,100716.25
2022-09-30T02:51:57.067Z,100717.22
2022-09-30T02:52:43.946Z,100711.97
2022-09-30T02:53:36.226Z,100715.41
2022-09-30T02:54:20.959Z,100711.63
2022-09-30T02:55:00.067Z,100711.81
2022-09-30T02:55:37.073Z,100710.19
2022-09-30T02:56:24.881Z,100715.09
2022-09-30T02:57:22.311Z,100710.19
2022-09-30T02:57:56.402Z,100707.88
2022-09-30T02:58:29.341Z,100710.97
2022-09-30T02:59:01.018Z,100706.38
2022-09-30T02:59:32.682Z,100703.75
2022-09-30T03:00:07.897Z,100706.72
2022-09-30T03:00:43.586Z,100707.53
2022-09-30T03:01:16.445Z,100705.88
2022-09-30T03:01:48.474Z,100697.69
2022-09-30T03:02:20.750Z,100704.78
2022-09-30T03:03:03.281Z,100699.59
2022-09-30T03:03:42.287Z,100702.44
2022-09-30T03:04:17.281Z,100697.72
2022-09-30T03:04:50.478Z,100699.00
2022-09-30T03:05:22.092Z,100702.63
2022-09-30T03:05:53.793Z,100699.38
2022-09-30T03:06:25.798Z,100705.28
2022-09-30T03:06:57.589Z,100701.00
2022-09-30T03:07:29.070Z,100700.84
2022-09-30T03:08:01.354Z,100701.66
2022-09-30T03:08:32.856Z,100698.03
2022-09-30T03:09:05.374Z,100706.09
2022-09-30T03:09:37.153Z,100704.44
2022-09-30T03:10:17.786Z,100709.88
2022-09-30T03:10:51.066Z,100706.25
2022-09-30T03:11:25.402Z,100709.53
2022-09-30T03:12:25.379Z,100704.63
2022-09-30T03:12:56.868Z,100707.56
2022-09-30T03:13:43.566Z,100715.16
2022-09-30T03:14:29.273Z,100715.47
2022-09-30T03:15:20.171Z,100714.50
2022-09-30T03:15:54.458Z,100713.16
2022-09-30T03:16:44.285Z,100710.03
2022-09-30T03:17:55.955Z,100714.00
2022-09-30T03:18:36.630Z,100716.44
2022-09-30T03:19:40.606Z,100710.84
2022-09-30T03:20:43.927Z,100710.84
2022-09-30T03:21:52.779Z,100706.75
2022-09-30T03:22:52.115Z,100703.31
2022-09-30T03:23:36.283Z,100702.16
2022-09-30T03:24:28.923Z,100706.44
2022-09-30T03:25:22.730Z,100710.53
2022-09-30T03:26:24.860Z,100705.59
2022-09-30T03:27:01.573Z,100711.53
2022-09-30T03:27:42.970Z,100711.88
2022-09-30T03:28:25.666Z,100707.91
2022-09-30T03:29:08.950Z,100713.16
2022-09-30T03:29:56.139Z,100705.94
2022-09-30T03:30:28.387Z,100718.09
2022-09-30T03:31:35.842Z,100710.84
2022-09-30T03:32:16.192Z,100722.19
2022-09-30T03:32:56.402Z,100726.63
2022-09-30T03:33:37.411Z,100722.53
2022-09-30T03:34:22.680Z,100723.50
2022-09-30T03:35:10.846Z,100725.00
2022-09-30T03:35:54.189Z,100725.50
2022-09-30T03:36:36.664Z,100729.75
2022-09-30T03:37:30.213Z,100728.94
2022-09-30T03:38:07.426Z,100728.59
2022-09-30T03:38:47.151Z,100730.91
2022-09-30T03:39:56.994Z,100729.09
2022-09-30T03:40:38.966Z,100737.97
2022-09-30T03:41:25.700Z,100734.19
2022-09-30T03:42:05.907Z,100734.19
2022-09-30T03:43:00.493Z,100733.38
2022-09-30T03:43:38.736Z,100730.75
2022-09-30T03:44:28.506Z,100735.50
2022-09-30T03:45:00.036Z,100736.81
2022-09-30T03:45:39.531Z,100736.00
2022-09-30T03:46:24.732Z,100733.53
2022-09-30T03:47:37.195Z,100739.78
2022-09-30T03:48:09.313Z,100739.44
2022-09-30T03:48:41.230Z,100741.06
2022-09-30T03:49:20.196Z,100747.66
2022-09-30T03:50:41.810Z,100746.00
2022-09-30T03:51:13.551Z,100744.84
2022-09-30T03:51:45.091Z,100747.66
2022-09-30T03:52:17.405Z,100754.56
2022-09-30T03:52:49.564Z,100743.38
2022-09-30T03:53:21.221Z,100753.25
2022-09-30T03:53:54.125Z,100754.91
2022-09-30T03:54:25.799Z,100749.97
2022-09-30T03:55:03.007Z,100753.72
2022-09-30T03:56:49.850Z,100755.88
2022-09-30T03:57:21.451Z,100754.06
2022-09-30T03:57:54.412Z,100749.97
2022-09-30T03:58:26.067Z,100748.81
2022-09-30T03:58:57.735Z,100752.91
2022-09-30T03:59:29.345Z,100750.44
2022-09-30T04:00:01.712Z,100753.25
2022-09-30T04:00:37.100Z,100751.78
2022-09-30T04:01:16.972Z,100752.59
2022-09-30T04:01:48.707Z,100755.19
2022-09-30T04:02:20.329Z,100752.56
2022-09-30T04:02:54.691Z,100747.47
2022-09-30T04:03:28.667Z,100754.53
2022-09-30T04:04:00.202Z,100748.97
2022-09-30T04:04:31.644Z,100758.16
2022-09-30T04:05:03.854Z,100744.69
2022-09-30T04:05:35.552Z,100748.13
2022-09-30T04:06:09.646Z,100760.63
2022-09-30T04:06:41.153Z,100746.00
2022-09-30T04:07:13.091Z,100751.59
2022-09-30T04:07:44.615Z,100754.53
2022-09-30T04:08:16.901Z,100752.75
2022-09-30T04:08:48.870Z,100750.59
2022-09-30T04:09:20.502Z,100752.91
2022-09-30T04:09:52.045Z,100750.09
2022-09-30T04:10:23.518Z,100756.84
2022-09-30T04:10:54.958Z,100756.31
2022-09-30T04:11:26.738Z,100752.53
2022-09-30T04:11:58.250Z,100762.06
2022-09-30T04:12:29.696Z,100759.09
2022-09-30T04:13:01.264Z,100752.88
2022-09-30T04:13:32.833Z,100752.53
2022-09-30T04:14:05.799Z,100756.97
2022-09-30T04:14:37.357Z,100750.56
2022-09-30T04:15:09.266Z,100758.44
2022-09-30T04:15:41.356Z,100753.84
2022-09-30T04:16:12.884Z,100754.53
2022-09-30T04:16:44.506Z,100761.28
2022-09-30T04:17:16.419Z,100759.94
2022-09-30T04:17:48.054Z,100755.81
2022-09-30T04:18:19.508Z,100753.69
2022-09-30T04:18:51.111Z,100755.00
2022-09-30T04:19:22.813Z,100760.91
2022-09-30T04:19:54.290Z,100764.03
2022-09-30T04:20:26.157Z,100758.78
2022-09-30T04:20:59.153Z,100767.63
2022-09-30T04:21:30.960Z,100759.09
2022-09-30T04:22:02.387Z,100765.66
2022-09-30T04:22:33.834Z,100766.97
2022-09-30T04:23:05.554Z,100767.47
2022-09-30T04:23:38.030Z,100775.19
2022-09-30T04:24:09.711Z,100766.19
2022-09-30T04:24:41.278Z,100763.56
2022-09-30T04:25:12.985Z,100762.59
2022-09-30T04:25:52.137Z,100769.16
2022-09-30T04:26:23.694Z,100769.16
2022-09-30T04:26:55.233Z,100770.13
2022-09-30T04:27:27.399Z,100766.19
2022-09-30T04:27:58.863Z,100769.66
2022-09-30T04:28:30.365Z,100767.69
2022-09-30T04:29:01.908Z,100772.59
2022-09-30T04:29:33.391Z,100768.66
2022-09-30T04:30:05.942Z,100769.81
2022-09-30T04:30:38.029Z,100765.38
2022-09-30T04:31:11.953Z,100769.66
2022-09-30T04:31:43.950Z,100766.38
2022-09-30T04:32:15.436Z,100776.53
2022-09-30T04:32:47.191Z,100776.53
2022-09-30T04:33:18.842Z,100768.66
2022-09-30T04:33:50.798Z,100765.53
2022-09-30T04:34:22.402Z,100769.97
2022-09-30T04:34:54.653Z,100775.56
2022-09-30T04:35:28.839Z,100775.06
2022-09-30T04:36:00.931Z,100778.50
2022-09-30T04:36:32.457Z,100778.84
2022-09-30T04:37:08.586Z,100772.75
2022-09-30T04:38:07.490Z,100781.81
2022-09-30T04:38:39.355Z,100776.38
2022-09-30T04:40:02.974Z,100781.16
2022-09-30T04:40:38.590Z,100780.00
2022-09-30T04:41:16.194Z,100780.16
2022-09-30T04:41:47.686Z,100782.78
2022-09-30T04:42:19.176Z,100778.84
2022-09-30T04:42:50.666Z,100777.19
2022-09-30T04:43:23.559Z,100780.47
2022-09-30T04:43:55.809Z,100781.78
2022-09-30T04:44:27.437Z,100780.13
2022-09-30T04:44:59.165Z,100773.53
2022-09-30T04:45:30.679Z,100768.94
2022-09-30T04:46:02.553Z,100782.09
2022-09-30T04:46:36.670Z,100783.06
2022-09-30T04:47:08.346Z,100783.38
2022-09-30T04:47:48.775Z,100780.44
2022-09-30T04:48:22.126Z,100777.50
2022-09-30T04:48:53.653Z,100775.19
2022-09-30T04:49:25.149Z,100783.44
2022-09-30T04:49:57.347Z,100786.06
2022-09-30T04:50:28.792Z,100789.03
2022-09-30T04:51:00.973Z,100778.50
2022-09-30T04:51:32.879Z,100782.28
2022-09-30T04:52:04.364Z,100783.59
2022-09-30T04:52:35.839Z,100781.16
2022-09-30T04:53:08.483Z,100779.16
2022-09-30T04:53:39.993Z,100781.81
2022-09-30T04:54:12.308Z,100786.22
2022-09-30T04:54:43.743Z,100787.72
2022-09-30T04:55:15.251Z,100786.72
2022-09-30T04:55:46.841Z,100787.41
2022-09-30T04:56:18.363Z,100789.06
2022-09-30T04:56:49.835Z,100790.69
2022-09-30T04:57:21.294Z,100797.25
2022-09-30T04:57:52.725Z,100788.72
2022-09-30T04:58:24.675Z,100795.28
2022-09-30T04:58:56.138Z,100797.75
2022-09-30T04:59:28.642Z,100795.13
2022-09-30T05:00:00.308Z,100789.53
2022-09-30T05:00:31.980Z,100794.97
2022-09-30T05:01:08.482Z,100794.13
2022-09-30T05:01:42.466Z,100794.13
2022-09-30T05:02:14.031Z,100802.84
2022-09-30T05:02:45.554Z,100795.63
2022-09-30T05:03:16.998Z,100798.56
2022-09-30T05:03:48.962Z,100794.97
2022-09-30T05:04:20.563Z,100795.94
2022-09-30T05:04:52.190Z,100803.50
2022-09-30T05:05:23.893Z,100792.50
2022-09-30T05:05:55.693Z,100801.53
2022-09-30T05:06:27.166Z,100801.22
2022-09-30T05:06:59.926Z,100799.41
2022-09-30T05:07:31.912Z,100797.91
2022-09-30T05:08:04.087Z,100800.56
2022-09-30T05:08:35.907Z,100800.56
2022-09-30T05:09:07.644Z,100805.16
2022-09-30T05:09:39.182Z,100799.22
2022-09-30T05:10:11.400Z,100800.69
2022-09-30T05:10:42.843Z,100803.84
2022-09-30T05:11:19.564Z,100802.00
2022-09-30T05:11:51.079Z,100796.56
2022-09-30T05:12:22.735Z,100801.84
2022-09-30T05:12:54.447Z,100797.41
2022-09-30T05:13:30.108Z,100803.81
2022-09-30T05:14:01.571Z,100801.34
2022-09-30T05:14:33.416Z,100811.03
2022-09-30T05:15:05.613Z,100805.94
2022-09-30T05:15:37.075Z,100807.44
2022-09-30T05:16:09.215Z,100809.75
2022-09-30T05:16:40.830Z,100806.97
2022-09-30T05:17:12.379Z,100801.69
2022-09-30T05:17:44.110Z,100807.63
2022-09-30T05:18:15.582Z,100807.78
2022-09-30T05:18:47.272Z,100813.53
2022-09-30T05:19:18.828Z,100810.41
2022-09-30T05:19:50.493Z,100813.38
2022-09-30T05:20:22.047Z,100815.94
2022-09-30T05:20:54.537Z,100810.22
2022-09-30T05:21:25.998Z,100812.66
2022-09-30T05:21:57.655Z,100813.31
2022-09-30T05:22:29.121Z,100816.78
2022-09-30T05:23:00.560Z,100813.81
2022-09-30T05:23:33.196Z,100816.28
2022-09-30T05:24:04.675Z,100809.72
2022-09-30T05:24:36.157Z,100819.25
2022-09-30T05:25:08.132Z,100808.44
2022-09-30T05:25:39.617Z,100816.97
2022-09-30T05:26:12.561Z,100813.03
2022-09-30T05:26:44.573Z,100812.03
2022-09-30T05:27:16.067Z,100812.38
2022-09-30T05:27:50.949Z,100813.03
2022-09-30T05:28:22.832Z,100810.72
2022-09-30T05:28:54.383Z,100814.34
2022-09-30T05:29:25.859Z,100812.38
2022-09-30T05:29:57.969Z,100812.38
2022-09-30T05:30:29.505Z,100810.72
2022-09-30T05:31:03.217Z,100814.84
2022-09-30T05:31:34.929Z,100809.59
2022-09-30T05:32:07.793Z,100808.44
2022-09-30T05:32:39.731Z,100812.38
2022-09-30T05:33:12.961Z,100807.44
2022-09-30T05:33:45.120Z,100818.28
2022-09-30T05:34:16.896Z,100812.38
2022-09-30T05:34:48.474Z,100808.91
2022-09-30T05:35:20.054Z,100814.97
2022-09-30T05:35:52.360Z,100809.25
2022-09-30T05:36:23.841Z,100816.00
2022-09-30T05:36:55.405Z,100811.72
2022-09-30T05:37:26.986Z,100812.03
2022-09-30T05:38:00.141Z,100813.97
2022-09-30T05:38:31.774Z,100823.84
2022-09-30T05:39:03.746Z,100816.28
2022-09-30T05:39:36.016Z,100815.94
2022-09-30T05:40:08.415Z,100817.94
2022-09-30T05:40:40.544Z,100817.09
2022-09-30T05:41:13.724Z,100816.28
2022-09-30T05:41:45.265Z,100814.97
2022-09-30T05:42:16.788Z,100819.94
2022-09-30T05:42:48.308Z,100815.94
2022-09-30T05:43:20.090Z,100816.16
2022-09-30T05:43:51.754Z,100823.22
2022-09-30T05:44:23.289Z,100820.91
2022-09-30T05:44:54.812Z,100817.97
2022-09-30T05:45:26.905Z,100823.88
2022-09-30T05:45:58.372Z,100821.06
2022-09-30T05:46:29.997Z,100819.09
2022-09-30T05:47:01.529Z,100821.56
2022-09-30T05:47:33.780Z,100813.03
2022-09-30T05:48:05.285Z,100818.47
2022-09-30T05:48:36.789Z,100820.28
2022-09-30T05:49:08.420Z,100824.56
2022-09-30T05:49:41.708Z,100821.91
2022-09-30T05:50:13.314Z,100819.28
2022-09-30T05:50:50.419Z,100828.16
2022-09-30T05:51:36.501Z,100823.91
2022-09-30T05:52:08.045Z,100830.97
2022-09-30T05:55:39.088Z,100827.00
2022-09-30T05:56:12.097Z,100824.22
2022-09-30T05:56:43.625Z,100823.72
2022-09-30T05:57:15.098Z,100834.41
2022-09-30T05:57:50.675Z,100834.06
2022-09-30T05:58:22.314Z,100823.91
2022-09-30T05:58:53.975Z,100830.78
2022-09-30T05:59:26.270Z,100831.78
2022-09-30T05:59:58.082Z,100831.44
2022-09-30T06:00:29.660Z,100832.59
2022-09-30T06:01:13.478Z,100829.81
2022-09-30T06:01:45.953Z,100838.97
2022-09-30T06:02:17.621Z,100840.31
2022-09-30T06:02:52.377Z,100834.41
2022-09-30T06:03:24.174Z,100843.94
2022-09-30T06:03:55.696Z,100836.03
2022-09-30T06:04:27.182Z,100833.91
2022-09-30T06:04:58.702Z,100837.03
2022-09-30T06:05:30.577Z,100844.75
2022-09-30T06:06:02.313Z,100841.63
2022-09-30T06:06:33.828Z,100838.34
2022-09-30T06:07:10.347Z,100833.56
2022-09-30T06:07:42.319Z,100846.25
2022-09-30T06:08:14.826Z,100839.81
2022-09-30T06:08:47.040Z,100834.72
2022-09-30T06:09:18.738Z,100850.34
2022-09-30T06:09:50.458Z,100849.50
2022-09-30T06:10:24.173Z,100843.56
2022-09-30T06:10:56.015Z,100851.16
2022-09-30T06:11:27.520Z,100846.19
2022-09-30T06:12:00.328Z,100850.44
2022-09-30T06:12:31.822Z,100851.28
2022-09-30T06:13:04.018Z,100852.41
2022-09-30T06:13:35.550Z,100847.47
2022-09-30T06:14:08.110Z,100848.31
2022-09-30T06:14:39.634Z,100854.75
2022-09-30T06:15:11.270Z,100853.75
2022-09-30T06:15:43.910Z,100848.81
2022-09-30T06:16:15.893Z,100846.19
2022-09-30T06:16:48.397Z,100848.63
2022-09-30T06:17:20.543Z,100856.34
2022-09-30T06:17:56.362Z,100852.06
2022-09-30T06:18:28.670Z,100849.75
2022-09-30T06:19:01.202Z,100857.31
2022-09-30T06:19:32.905Z,100854.31
2022-09-30T06:20:05.550Z,100856.44
2022-09-30T06:20:37.347Z,100859.41
2022-09-30T06:21:12.175Z,100857.56
2022-09-30T06:21:43.689Z,100864.47
2022-09-30T06:22:16.226Z,100859.50
2022-09-30T06:22:48.092Z,100860.81
2022-09-30T06:23:20.328Z,100854.84
2022-09-30T06:23:51.832Z,100857.63
2022-09-30T06:24:24.101Z,100865.06
2022-09-30T06:24:55.613Z,100868.53
2022-09-30T06:25:28.396Z,100857.97
2022-09-30T06:26:00.129Z,100869.66
2022-09-30T06:26:31.676Z,100861.94
2022-09-30T06:27:03.242Z,100858.47
2022-09-30T06:27:35.035Z,100860.91
2022-09-30T06:28:07.677Z,100858.41
2022-09-30T06:28:39.409Z,100863.38
2022-09-30T06:29:11.170Z,100870.28
2022-09-30T06:29:42.667Z,100867.59
2022-09-30T06:30:14.770Z,100862.28
2022-09-30T06:30:46.516Z,100866.25
2022-09-30T06:31:18.272Z,100866.25
2022-09-30T06:31:49.858Z,100871.28
2022-09-30T06:32:21.399Z,100873.91
2022-09-30T06:32:56.720Z,100869.13
2022-09-30T06:33:28.911Z,100871.75
2022-09-30T06:34:01.779Z,100871.28
2022-09-30T06:34:33.640Z,100876.56
2022-09-30T06:35:05.884Z,100874.75
2022-09-30T06:35:37.997Z,100878.66
2022-09-30T06:36:09.784Z,100875.84
2022-09-30T06:36:41.278Z,100879.44
2022-09-30T06:37:13.842Z,100872.69
2022-09-30T06:37:45.960Z,100874.50
2022-09-30T06:38:17.795Z,100878.59
2022-09-30T06:38:52.973Z,100875.28
2022-09-30T06:39:26.969Z,100871.41
2022-09-30T06:39:58.483Z,100875.16
2022-09-30T06:40:30.072Z,100878.31
2022-09-30T06:41:01.808Z,100874.69
2022-09-30T06:41:33.866Z,100871.41
2022-09-30T06:42:05.436Z,100876.56
2022-09-30T06:42:40.127Z,100871.09
2022-09-30T06:43:11.864Z,100877.66
2022-09-30T06:43:56.632Z,100873.03
2022-09-30T06:44:45.864Z,100874.69
2022-09-30T06:45:31.033Z,100873.03
2022-09-30T06:46:13.826Z,100871.22
2022-09-30T06:46:53.512Z,100882.88
2022-09-30T06:47:26.389Z,100876.56
2022-09-30T06:48:00.735Z,100874.97
2022-09-30T06:48:38.362Z,100877.94
2022-09-30T06:49:21.592Z,100877.94
2022-09-30T06:49:54.652Z,100883.84
2022-09-30T06:50:26.691Z,100882.97
2022-09-30T06:51:02.187Z,100882.16
2022-09-30T06:51:34.011Z,100889.00
2022-09-30T06:52:05.622Z,100885.81
2022-09-30T06:52:37.399Z,100886.00
2022-09-30T06:53:11.879Z,100885.25
2022-09-30T06:53:43.457Z,100883.81
2022-09-30T06:54:14.975Z,100881.13
2022-09-30T06:54:46.952Z,100887.78
2022-09-30T06:55:18.957Z,100875.72
2022-09-30T06:55:55.878Z,100884.63
2022-09-30T06:56:27.596Z,100881.63
2022-09-30T06:56:59.145Z,100886.56
2022-09-30T06:57:31.095Z,100884.84
2022-09-30T06:58:02.616Z,100880.22
2022-09-30T06:58:34.338Z,100878.91